createdAt,value
2023-01-13T00:04:29.122Z,101932.59
2023-01-13T00:09:32.972Z,101936.22
2023-01-13T00:14:39.164Z,101923.81
2023-01-13T00:19:42.880Z,101920.69
2023-01-13T00:24:47.598Z,101914.91
2023-01-13T00:29:52.939Z,101918.34
2023-01-13T00:34:56.900Z,101917.56
2023-01-13T00:40:01.312Z,101906.00
2023-01-13T00:45:07.023Z,101894.91
2023-01-13T00:50:11.923Z,101903.00
2023-01-13T00:55:16.685Z,101911.47
2023-01-13T01:00:22.791Z,101912.56
2023-01-13T01:05:26.810Z,101915.31
2023-01-13T01:10:30.571Z,101914.59
2023-01-13T01:15:36.006Z,101909.75
2023-01-13T01:20:41.632Z,101916.63
2023-01-13T01:25:47.021Z,101900.16
2023-01-13T01:30:51.888Z,101903.63
2023-01-13T01:35:56.204Z,101907.28
2023-01-13T01:41:00.682Z,101900.63
2023-01-13T01:46:07.477Z,101894.97
2023-01-13T01:51:14.806Z,101895.03
2023-01-13T01:56:24.012Z,101863.84
2023-01-13T02:01:28.588Z,101889.59
2023-01-13T02:06:33.373Z,101899.78
2023-01-13T02:11:58.229Z,101894.06
2023-01-13T02:17:11.301Z,101890.91
2023-01-13T02:22:40.320Z,101886.03
2023-01-13T02:28:06.955Z,101882.94
2023-01-13T02:33:19.109Z,101904.13
2023-01-13T02:38:29.767Z,101891.78
2023-01-13T02:43:59.247Z,101885.31
2023-01-13T02:49:09.640Z,101886.41
2023-01-13T02:54:24.004Z,101896.59
2023-01-13T02:59:31.453Z,101888.34
2023-01-13T03:04:56.516Z,101878.44
2023-01-13T03:10:16.028Z,101881.25
2023-01-13T03:15:43.546Z,101874.81
2023-01-13T03:21:16.487Z,101875.72
2023-01-13T03:26:48.201Z,101868.53
2023-01-13T03:32:13.159Z,101864.66
2023-01-13T03:37:23.002Z,101861.50
2023-01-13T03:42:32.985Z,101869.16
2023-01-13T03:47:56.759Z,101860.13
2023-01-13T03:53:05.666Z,101868.72
2023-01-13T03:58:21.331Z,101850.06
2023-01-13T04:03:46.323Z,101862.44
2023-01-13T04:09:04.964Z,101876.16
2023-01-13T04:14:11.527Z,101863.84
2023-01-13T04:19:16.279Z,101870.88
2023-01-13T04:24:21.671Z,101848.09
2023-01-13T04:29:26.815Z,101867.28
2023-01-13T04:34:31.956Z,101871.78
2023-01-13T04:39:38.968Z,101865.34
2023-01-13T04:44:42.694Z,101860.31
2023-01-13T04:49:48.264Z,101871.75
2023-01-13T04:54:52.041Z,101867.75
2023-01-13T04:59:57.088Z,101841.66
2023-01-13T05:05:02.085Z,101847.16
2023-01-13T05:10:07.116Z,101861.94
2023-01-13T05:15:34.997Z,101868.16
2023-01-13T05:20:38.877Z,101850.84
2023-01-13T05:25:44.804Z,101860.38
2023-01-13T05:30:50.977Z,101856.38
2023-01-13T05:35:55.488Z,101868.47
2023-01-13T05:41:20.969Z,101851.75
2023-01-13T05:46:25.160Z,101855.88
2023-01-13T05:51:31.908Z,101852.63
2023-01-13T05:56:36.772Z,101856.22
2023-01-13T06:01:41.206Z,101851.38
2023-01-13T06:06:47.094Z,101854.00
2023-01-13T06:11:51.884Z,101867.81
2023-01-13T06:16:57.017Z,101789.56
2023-01-13T06:22:10.944Z,101856.06
2023-01-13T06:27:15.391Z,101865.63
2023-01-13T06:32:26.714Z,101866.09
2023-01-13T06:37:31.826Z,101861.22
2023-01-13T06:42:56.862Z,101851.81
2023-01-13T06:48:02.301Z,101871.84
2023-01-13T06:53:07.529Z,101863.63
2023-01-13T06:58:11.314Z,101863.97
2023-01-13T07:03:17.796Z,101876.16
2023-01-13T07:08:21.773Z,101867.03
2023-01-13T07:13:44.105Z,101871.41
2023-01-13T07:18:48.074Z,101874.88
2023-01-13T07:23:52.601Z,101876.72
2023-01-13T07:29:01.836Z,101879.28
2023-01-13T07:34:07.222Z,101872.47
2023-01-13T07:39:10.952Z,101888.25
2023-01-13T07:44:14.928Z,101880.56
2023-01-13T07:49:22.183Z,101894.81
2023-01-13T07:54:39.594Z,101888.00
2023-01-13T07:59:46.932Z,101904.00
2023-01-13T08:04:51.554Z,101908.94
2023-01-13T08:09:57.039Z,101912.25
2023-01-13T08:15:00.888Z,101911.28
2023-01-13T08:20:07.241Z,101914.72
2023-01-13T08:25:11.283Z,101923.97
2023-01-13T08:30:16.763Z,101925.28
2023-01-13T08:35:23.273Z,101939.50
2023-01-13T08:40:27.282Z,101950.34
2023-01-13T08:45:31.235Z,101938.41
2023-01-13T08:50:36.264Z,101963.81
2023-01-13T08:55:42.113Z,101970.53
2023-01-13T09:00:45.993Z,101983.84
2023-01-13T09:05:50.960Z,101977.00
2023-01-13T09:10:54.796Z,101978.41
2023-01-13T09:15:58.875Z,101970.53
2023-01-13T09:21:04.031Z,101974.25
2023-01-13T09:26:12.116Z,101980.09
2023-01-13T09:31:19.788Z,101989.25
2023-01-13T09:36:23.683Z,101995.16
2023-01-13T09:41:51.141Z,102003.41
2023-01-13T09:47:01.600Z,102009.81
2023-01-13T09:52:11.574Z,102011.41
2023-01-13T09:57:21.010Z,102017.19
2023-01-13T10:02:24.859Z,102006.19
2023-01-13T10:07:33.900Z,102028.75
2023-01-13T10:12:58.133Z,102025.22
2023-01-13T10:18:16.907Z,102043.59
2023-01-13T10:23:48.339Z,102041.00
2023-01-13T10:28:55.757Z,102001.06
2023-01-13T10:34:05.073Z,102052.63
2023-01-13T10:39:17.231Z,102050.84
2023-01-13T10:44:23.210Z,102053.16
2023-01-13T10:49:34.517Z,102070.13
2023-01-13T10:54:53.325Z,102055.88
2023-01-13T11:00:06.413Z,102060.13
2023-01-13T11:05:24.827Z,102064.28
2023-01-13T11:10:33.287Z,102071.78
2023-01-13T11:15:54.876Z,102081.06
2023-01-13T11:21:01.302Z,102088.69
2023-01-13T11:26:39.876Z,102088.69
2023-01-13T11:31:50.942Z,102097.19
2023-01-13T11:36:59.249Z,102093.88
2023-01-13T11:42:24.060Z,102100.56
2023-01-13T11:47:29.599Z,102084.34
2023-01-13T11:53:13.964Z,102095.47
2023-01-13T11:58:50.956Z,102099.66
2023-01-13T12:04:22.039Z,102104.81
2023-01-13T12:09:41.109Z,102114.97
2023-01-13T12:14:57.175Z,102114.97
2023-01-13T12:20:23.193Z,102115.69
2023-01-13T12:25:39.163Z,102107.34
2023-01-13T12:31:02.793Z,102117.50
2023-01-13T12:36:28.174Z,102130.94
2023-01-13T12:42:20.070Z,102126.84
2023-01-13T12:47:40.910Z,102136.13
2023-01-13T12:52:46.427Z,102122.59
2023-01-13T12:58:14.767Z,102132.75
2023-01-13T13:03:35.691Z,102135.38
2023-01-13T13:08:46.103Z,102137.16
2023-01-13T13:13:51.634Z,102132.16
2023-01-13T13:19:21.240Z,102126.19
2023-01-13T13:24:30.091Z,102134.69
2023-01-13T13:29:44.051Z,102144.78
2023-01-13T13:35:31.373Z,102142.25
2023-01-13T13:41:04.102Z,102149.88
2023-01-13T13:46:48.839Z,102138.06
2023-01-13T13:52:01.923Z,102145.78
2023-01-13T13:57:17.041Z,102139.44
2023-01-13T14:02:31.727Z,102159.25
2023-01-13T14:07:48.831Z,102162.63
2023-01-13T14:12:53.803Z,102165.16
2023-01-13T14:18:02.025Z,102168.53
2023-01-13T14:23:06.594Z,102162.69
2023-01-13T14:28:31.186Z,102168.66
2023-01-13T14:33:48.110Z,102176.22
2023-01-13T14:39:15.027Z,102172.84
2023-01-13T14:44:32.500Z,102191.34
2023-01-13T14:50:09.438Z,102195.59
2023-01-13T14:55:31.510Z,102202.22
2023-01-13T15:00:36.407Z,102209.00
2023-01-13T15:05:43.479Z,102209.06
2023-01-13T15:11:07.628Z,102205.69
2023-01-13T15:16:18.537Z,102208.22
2023-01-13T15:21:23.815Z,102217.28
2023-01-13T15:26:36.426Z,102212.31
2023-01-13T15:31:42.056Z,102211.53
2023-01-13T15:36:45.865Z,102204.75
2023-01-13T15:42:10.820Z,102209.06
2023-01-13T15:47:15.494Z,102215.91
2023-01-13T15:52:25.931Z,102206.69
2023-01-13T15:57:37.956Z,102201.63
2023-01-13T16:02:42.708Z,102191.56
2023-01-13T16:07:49.696Z,102183.97
2023-01-13T16:12:56.642Z,102209.06
2023-01-13T16:18:06.698Z,102201.56
2023-01-13T16:23:13.856Z,102208.34
2023-01-13T16:28:25.877Z,102220.94
2023-01-13T16:33:30.900Z,102222.59
2023-01-13T16:38:34.756Z,102228.50
2023-01-13T16:43:38.855Z,102230.25
2023-01-13T16:48:45.797Z,102221.88
2023-01-13T16:53:50.822Z,102226.19
2023-01-13T16:58:58.604Z,102228.66
2023-01-13T17:04:03.336Z,102228.66
2023-01-13T17:09:13.462Z,102236.16
2023-01-13T17:14:21.801Z,102231.09
2023-01-13T17:19:26.353Z,102223.19
2023-01-13T17:24:33.120Z,102241.97
2023-01-13T17:29:38.851Z,102243.72
2023-01-13T17:34:45.269Z,102248.81
2023-01-13T17:39:50.149Z,102238.72
2023-01-13T17:44:56.293Z,102244.69
2023-01-13T17:50:01.991Z,102248.09
2023-01-13T17:55:06.537Z,102247.16
2023-01-13T18:00:17.894Z,102242.97
2023-01-13T18:05:21.737Z,102250.47
2023-01-13T18:10:46.668Z,102244.56
2023-01-13T18:15:50.793Z,102252.13
2023-01-13T18:21:13.981Z,102250.28
2023-01-13T18:26:39.677Z,102263.88
2023-01-13T18:31:45.509Z,102249.56
2023-01-13T18:36:52.475Z,102257.13
2023-01-13T18:42:14.402Z,102244.50
2023-01-13T18:47:20.686Z,102243.66
2023-01-13T18:52:26.808Z,102234.41
2023-01-13T18:57:34.009Z,102249.47
2023-01-13T19:02:40.307Z,102256.19
2023-01-13T19:07:51.167Z,102257.84
2023-01-13T19:12:56.811Z,102256.31
2023-01-13T19:18:02.046Z,102260.56
2023-01-13T19:23:09.126Z,102253.88
2023-01-13T19:28:12.903Z,102261.38
2023-01-13T19:33:17.096Z,102268.94
2023-01-13T19:38:24.485Z,102261.44
2023-01-13T19:43:48.802Z,102261.38
2023-01-13T19:48:53.599Z,102261.09
2023-01-13T19:53:58.511Z,102255.47
2023-01-13T19:59:04.342Z,102261.38
2023-01-13T20:04:17.282Z,102271.50
2023-01-13T20:09:24.043Z,102270.72
2023-01-13T20:14:30.080Z,102277.56
2023-01-13T20:19:34.003Z,102264.94
2023-01-13T20:24:39.403Z,102242.91
2023-01-13T20:29:44.860Z,102245.69
2023-01-13T20:34:49.706Z,102251.53
2023-01-13T20:39:53.475Z,102252.41
2023-01-13T20:45:01.249Z,102255.72
2023-01-13T20:50:07.303Z,102252.34
2023-01-13T20:55:15.113Z,102249.88
2023-01-13T21:00:21.781Z,102243.13
2023-01-13T21:05:27.413Z,102233.88
2023-01-13T21:10:31.436Z,102237.13
2023-01-13T21:15:35.899Z,102234.63
2023-01-13T21:20:42.244Z,102232.03
2023-01-13T21:25:48.991Z,102223.66
2023-01-13T21:30:53.624Z,102236.34
2023-01-13T21:35:58.396Z,102230.50
2023-01-13T21:41:08.104Z,102214.38
2023-01-13T21:46:33.576Z,102222.13
2023-01-13T21:51:40.062Z,102211.66
2023-01-13T21:56:48.210Z,102225.25
2023-01-13T22:02:23.339Z,102210.31
2023-01-13T22:07:16.049Z,102208.81
2023-01-13T22:12:26.037Z,102202.16
2023-01-13T22:17:34.227Z,102195.59
2023-01-13T22:22:42.383Z,102177.53
2023-01-13T22:27:46.306Z,102190.59
2023-01-13T22:32:51.229Z,102190.66
2023-01-13T22:37:55.025Z,102190.72
2023-01-13T22:42:58.833Z,102174.81
2023-01-13T22:48:02.502Z,102168.09
2023-01-13T22:53:08.120Z,102158.06
2023-01-13T22:58:14.861Z,102149.56
2023-01-13T23:03:19.023Z,102131.84
2023-01-13T23:08:22.859Z,102131.97
2023-01-13T23:13:29.900Z,102143.78
2023-01-13T23:18:35.665Z,102136.28
2023-01-13T23:23:41.617Z,102126.25
2023-01-13T23:28:46.659Z,102126.31
2023-01-13T23:33:50.519Z,102123.00
2023-01-13T23:38:54.846Z,102122.94
2023-01-13T23:44:01.332Z,102122.13
2023-01-13T23:49:06.023Z,102123.94
2023-01-13T23:54:11.178Z,102125.72
2023-01-13T23:59:17.780Z,102120.66
